Time;durP1;ratioP1;P1;durP2;ratioP2;P2;SDS_P1;SDS_P2;PMS_P1;PMS_P2;Temp;Humidity;BMP_temperature;BMP_pressure;BME280_temperature;BME280_humidity;BME280_pressure;Samples;Min_cycle;Max_cycle;Signal;HPM_P1;HPM_P2
2023/06/29 00:02:25;;;;;;;57.72;34.58;;;;;;;;;;5102567;28;20036;-70
2023/06/29 00:04:53;;;;;;;58.10;34.75;;;;;;;;;;5105532;28;20065;-70
2023/06/29 00:07:20;;;;;;;52.70;34.47;;;;;;;;;;5098426;28;20104;-70
2023/06/29 00:09:47;;;;;;;53.97;33.70;;;;;;;;;;5102012;28;20042;-70
2023/06/29 00:12:13;;;;;;;51.60;33.80;;;;;;;;;;5100693;28;20530;-70
2023/06/29 00:14:40;;;;;;;57.20;31.67;;;;;;;;;;5136535;27;20504;-70
2023/06/29 00:17:06;;;;;;;54.67;32.17;;;;;;;;;;5104038;28;20415;-71
2023/06/29 00:19:32;;;;;;;51.92;32.15;;;;;;;;;;5103976;28;20160;-71
2023/06/29 00:21:58;;;;;;;56.70;31.85;;;;;;;;;;5138406;27;20455;-70
2023/06/29 00:24:26;;;;;;;52.72;32.72;;;;;;;;;;5111019;28;20040;-70
2023/06/29 00:26:52;;;;;;;55.17;33.83;;;;;;;;;;5108673;28;20040;-70
2023/06/29 00:29:18;;;;;;;56.03;33.17;;;;;;;;;;5109941;28;20067;-71
2023/06/29 00:31:44;;;;;;;50.08;33.97;;;;;;;;;;5107147;28;20510;-70
2023/06/29 00:34:10;;;;;;;49.88;31.23;;;;;;;;;;5099696;28;20031;-70
2023/06/29 00:36:36;;;;;;;55.40;33.15;;;;;;;;;;5107854;28;20039;-70
2023/06/29 00:39:03;;;;;;;50.50;30.55;;;;;;;;;;5099568;28;20079;-70
2023/06/29 00:41:29;;;;;;;55.45;32.00;;;;;;;;;;5092712;28;20051;-70
2023/06/29 00:43:55;;;;;;;51.78;32.92;;;;;;;;;;5110932;28;20108;-70
2023/06/29 00:46:22;;;;;;;49.28;30.52;;;;;;;;;;5109176;28;20070;-70
2023/06/29 00:48:48;;;;;;;51.28;33.28;;;;;;;;;;5109141;28;20040;-70
2023/06/29 00:51:15;;;;;;;57.78;31.70;;;;;;;;;;5107009;28;20138;-70
2023/06/29 00:53:42;;;;;;;57.65;34.03;;;;;;;;;;5107414;28;20089;-70
2023/06/29 00:56:08;;;;;;;55.50;35.78;;;;;;;;;;5109968;28;20122;-70
2023/06/29 00:58:35;;;;;;;54.30;35.30;;;;;;;;;;5110158;28;20093;-70
2023/06/29 01:01:01;;;;;;;63.50;36.78;;;;;;;;;;5108358;28;20388;-70
2023/06/29 01:03:27;;;;;;;57.78;35.55;;;;;;;;;;5109320;28;20090;-70
2023/06/29 01:05:56;;;;;;;58.53;36.38;;;;;;;;;;5108984;28;20044;-70
2023/06/29 01:08:29;;;;;;;67.63;35.80;;;;;;;;;;5106861;28;20052;-70
2023/06/29 01:10:56;;;;;;;63.97;37.75;;;;;;;;;;5108715;28;20119;-70
2023/06/29 01:13:23;;;;;;;62.88;38.55;;;;;;;;;;5146873;27;20036;-70
2023/06/29 01:15:50;;;;;;;63.20;38.08;;;;;;;;;;5112315;28;20066;-70
2023/06/29 01:18:17;;;;;;;67.90;38.30;;;;;;;;;;5112188;28;20399;-70
2023/06/29 01:20:43;;;;;;;77.53;42.03;;;;;;;;;;5110929;27;20126;-70
2023/06/29 01:23:11;;;;;;;71.40;39.70;;;;;;;;;;5111251;27;20479;-70
2023/06/29 01:25:37;;;;;;;68.93;41.03;;;;;;;;;;5108079;27;20040;-70
2023/06/29 01:28:07;;;;;;;68.75;41.40;;;;;;;;;;5112906;27;20091;-70
2023/06/29 01:30:39;;;;;;;75.18;42.05;;;;;;;;;;5083551;28;20482;-70
2023/06/29 01:33:06;;;;;;;73.75;40.65;;;;;;;;;;5108765;28;20454;-70
2023/06/29 01:35:32;;;;;;;73.90;43.25;;;;;;;;;;5109956;28;20043;-70
2023/06/29 01:38:07;;;;;;;79.55;41.63;;;;;;;;;;5107034;28;20243;-70
2023/06/29 01:40:33;;;;;;;78.28;43.45;;;;;;;;;;5108491;27;21381;-70
2023/06/29 01:43:00;;;;;;;70.65;41.05;;;;;;;;;;5113980;27;20062;-70
2023/06/29 01:45:26;;;;;;;80.95;44.47;;;;;;;;;;5109750;28;20165;-70
2023/06/29 01:47:53;;;;;;;75.97;45.00;;;;;;;;;;5104249;28;20054;-70
2023/06/29 01:50:20;;;;;;;70.15;42.17;;;;;;;;;;5103809;27;20483;-70
2023/06/29 01:52:46;;;;;;;73.93;41.33;;;;;;;;;;5110417;28;20566;-70
2023/06/29 01:55:13;;;;;;;78.97;43.10;;;;;;;;;;5108119;28;20067;-70
2023/06/29 01:57:39;;;;;;;71.85;42.50;;;;;;;;;;5103398;28;20043;-70
2023/06/29 02:00:06;;;;;;;68.47;40.95;;;;;;;;;;5103346;27;20551;-70
2023/06/29 02:02:32;;;;;;;70.03;41.58;;;;;;;;;;5102300;28;20043;-70
2023/06/29 02:04:58;;;;;;;73.40;42.17;;;;;;;;;;5101853;28;20039;-70
2023/06/29 02:07:25;;;;;;;73.50;43.70;;;;;;;;;;5105091;28;20082;-70
2023/06/29 02:09:51;;;;;;;72.65;42.35;;;;;;;;;;5104171;27;20035;-70
2023/06/29 02:12:17;;;;;;;79.63;44.65;;;;;;;;;;5121051;27;20163;-71
2023/06/29 02:14:44;;;;;;;70.80;42.13;;;;;;;;;;5107235;28;20051;-70
2023/06/29 02:17:10;;;;;;;73.53;43.95;;;;;;;;;;5113439;27;20062;-70
2023/06/29 02:19:36;;;;;;;75.40;43.65;;;;;;;;;;5109371;27;20123;-67
2023/06/29 02:22:02;;;;;;;75.90;44.80;;;;;;;;;;5101044;28;20043;-67
2023/06/29 02:24:29;;;;;;;76.63;41.03;;;;;;;;;;5104230;28;20499;-67
2023/06/29 02:26:55;;;;;;;70.32;41.17;;;;;;;;;;5101058;27;20047;-67
2023/06/29 02:29:21;;;;;;;70.70;41.85;;;;;;;;;;5136833;27;20078;-67
2023/06/29 02:31:47;;;;;;;70.68;44.00;;;;;;;;;;5115339;27;20047;-67
2023/06/29 02:34:14;;;;;;;83.93;43.80;;;;;;;;;;5109079;28;20197;-67
2023/06/29 02:36:40;;;;;;;78.18;43.92;;;;;;;;;;5103391;27;20528;-67
2023/06/29 02:39:07;;;;;;;72.65;42.65;;;;;;;;;;5108154;27;20052;-67
2023/06/29 02:41:33;;;;;;;71.45;41.83;;;;;;;;;;5109194;27;20116;-67
2023/06/29 02:43:59;;;;;;;71.20;39.70;;;;;;;;;;5108087;28;20458;-67
2023/06/29 02:46:25;;;;;;;68.40;41.42;;;;;;;;;;5107901;28;20096;-67
2023/06/29 02:48:52;;;;;;;71.80;41.50;;;;;;;;;;5102506;28;20060;-67
2023/06/29 02:51:18;;;;;;;69.78;41.83;;;;;;;;;;5102395;27;20092;-67
2023/06/29 02:53:44;;;;;;;69.93;41.08;;;;;;;;;;5103262;28;20098;-67
2023/06/29 02:56:10;;;;;;;61.97;37.90;;;;;;;;;;5102061;28;20036;-67
2023/06/29 02:58:36;;;;;;;69.63;39.97;;;;;;;;;;5103868;28;20039;-67
2023/06/29 03:01:02;;;;;;;64.43;39.15;;;;;;;;;;5103093;28;20097;-67
2023/06/29 03:03:29;;;;;;;62.03;38.03;;;;;;;;;;5096861;28;20142;-67
2023/06/29 03:05:55;;;;;;;62.47;36.78;;;;;;;;;;5102856;28;20046;-67
2023/06/29 03:08:21;;;;;;;69.97;39.50;;;;;;;;;;5103972;27;20352;-67
2023/06/29 03:10:47;;;;;;;62.22;37.88;;;;;;;;;;5102695;27;20056;-67
2023/06/29 03:13:13;;;;;;;59.83;35.40;;;;;;;;;;5103288;28;20085;-67
2023/06/29 03:15:39;;;;;;;62.88;35.60;;;;;;;;;;5103527;28;20524;-67
2023/06/29 03:18:06;;;;;;;56.75;34.83;;;;;;;;;;5080246;28;20035;-67
2023/06/29 03:20:32;;;;;;;65.28;35.67;;;;;;;;;;5102609;27;20161;-67
2023/06/29 03:22:58;;;;;;;59.55;34.95;;;;;;;;;;5108932;28;20118;-67
2023/06/29 03:25:24;;;;;;;56.17;31.55;;;;;;;;;;5108768;27;20043;-67
2023/06/29 03:27:50;;;;;;;52.85;32.28;;;;;;;;;;5103903;28;20205;-67
2023/06/29 03:30:17;;;;;;;55.05;30.85;;;;;;;;;;5103897;28;20044;-67
2023/06/29 03:32:43;;;;;;;46.45;29.92;;;;;;;;;;5101324;28;20046;-67
2023/06/29 03:35:09;;;;;;;51.70;31.33;;;;;;;;;;5103119;28;20042;-67
2023/06/29 03:37:35;;;;;;;51.88;30.30;;;;;;;;;;5103397;28;20032;-67
2023/06/29 03:40:01;;;;;;;51.25;31.00;;;;;;;;;;5102183;28;20104;-67
2023/06/29 03:42:27;;;;;;;50.38;30.85;;;;;;;;;;5102913;28;20043;-67
2023/06/29 03:44:54;;;;;;;48.50;30.70;;;;;;;;;;5103397;28;20053;-67
2023/06/29 03:47:20;;;;;;;54.60;31.35;;;;;;;;;;5101473;28;20047;-67
2023/06/29 03:49:47;;;;;;;51.38;29.52;;;;;;;;;;5104175;28;20497;-67
2023/06/29 03:52:13;;;;;;;53.17;30.15;;;;;;;;;;5107358;28;20097;-67
2023/06/29 03:54:39;;;;;;;52.58;31.27;;;;;;;;;;5106219;28;20036;-67
2023/06/29 03:57:06;;;;;;;47.03;29.67;;;;;;;;;;5109518;28;20044;-67
2023/06/29 03:59:32;;;;;;;48.33;28.42;;;;;;;;;;5106027;28;20514;-67
2023/06/29 04:01:58;;;;;;;48.25;28.75;;;;;;;;;;5104807;28;20039;-67
2023/06/29 04:04:24;;;;;;;55.10;30.42;;;;;;;;;;5101211;28;20068;-66
2023/06/29 04:06:50;;;;;;;48.72;30.50;;;;;;;;;;5101439;28;20106;-67
2023/06/29 04:09:16;;;;;;;48.45;29.40;;;;;;;;;;5104662;28;20035;-67
2023/06/29 04:11:43;;;;;;;49.60;30.50;;;;;;;;;;5107980;28;20070;-67
2023/06/29 04:14:09;;;;;;;50.58;30.23;;;;;;;;;;5103653;28;20127;-67
2023/06/29 04:16:35;;;;;;;45.00;29.92;;;;;;;;;;5103707;28;20044;-67
2023/06/29 04:19:01;;;;;;;46.50;30.05;;;;;;;;;;5103870;28;20040;-67
2023/06/29 04:21:27;;;;;;;50.83;29.33;;;;;;;;;;5101416;28;20067;-67
2023/06/29 04:23:53;;;;;;;42.33;27.35;;;;;;;;;;5102189;28;20073;-67
2023/06/29 04:26:27;;;;;;;42.00;28.27;;;;;;;;;;5102777;28;20084;-67
2023/06/29 04:28:53;;;;;;;;;;;;;;;;;;5102782;28;20111;-67
2023/06/29 04:31:19;;;;;;;47.45;28.77;;;;;;;;;;5101178;28;19919;-67
2023/06/29 04:33:45;;;;;;;43.42;27.88;;;;;;;;;;5102428;28;20391;-67
2023/06/29 04:36:13;;;;;;;42.60;27.27;;;;;;;;;;5099668;28;20051;-67
2023/06/29 04:38:48;;;;;;;42.72;26.73;;;;;;;;;;5100776;28;20047;-66
2023/06/29 04:41:14;;;;;;;47.58;28.15;;;;;;;;;;5100766;28;20040;-67
2023/06/29 04:43:40;;;;;;;40.22;27.55;;;;;;;;;;5102680;28;20452;-67
2023/06/29 04:46:07;;;;;;;47.15;27.75;;;;;;;;;;5113154;27;20055;-70
2023/06/29 04:48:36;;;;;;;46.20;27.05;;;;;;;;;;5110830;28;20180;-72
2023/06/29 04:51:06;;;;;;;43.65;26.98;;;;;;;;;;5086211;27;20488;-70
2023/06/29 04:53:33;;;;;;;46.83;27.02;;;;;;;;;;5140259;27;20067;-70
2023/06/29 04:55:59;;;;;;;48.58;26.35;;;;;;;;;;5111043;28;20039;-71
2023/06/29 04:58:25;;;;;;;44.22;26.90;;;;;;;;;;5113052;27;20059;-73
2023/06/29 05:00:51;;;;;;;40.95;25.67;;;;;;;;;;5114957;27;20035;-70
2023/06/29 05:03:18;;;;;;;38.72;25.77;;;;;;;;;;5113502;28;20044;-68
2023/06/29 05:05:44;;;;;;;42.97;27.70;;;;;;;;;;5115484;28;20058;-69
2023/06/29 05:08:10;;;;;;;47.83;28.17;;;;;;;;;;5114251;28;20502;-69
2023/06/29 05:10:36;;;;;;;47.50;27.00;;;;;;;;;;5113262;27;20031;-69
2023/06/29 05:13:03;;;;;;;47.17;26.58;;;;;;;;;;5115354;28;20423;-69
2023/06/29 05:15:29;;;;;;;49.53;29.48;;;;;;;;;;5114919;28;20069;-69
2023/06/29 05:17:55;;;;;;;48.53;29.35;;;;;;;;;;5112905;27;20143;-73
2023/06/29 05:20:22;;;;;;;46.72;30.27;;;;;;;;;;5113250;27;20047;-67
2023/06/29 05:22:48;;;;;;;45.50;29.52;;;;;;;;;;5112395;28;20547;-69
2023/06/29 05:25:15;;;;;;;44.63;27.88;;;;;;;;;;5112144;27;20044;-69
2023/06/29 05:27:41;;;;;;;50.47;29.38;;;;;;;;;;5091310;28;20347;-68
2023/06/29 05:30:11;;;;;;;53.50;29.95;;;;;;;;;;5112298;27;20050;-69
2023/06/29 05:32:37;;;;;;;44.10;28.55;;;;;;;;;;5111824;28;20059;-69
2023/06/29 05:35:04;;;;;;;45.03;27.95;;;;;;;;;;5110829;28;20039;-70
2023/06/29 05:37:31;;;;;;;43.08;27.85;;;;;;;;;;5115518;27;20046;-70
2023/06/29 05:39:57;;;;;;;46.92;29.63;;;;;;;;;;5117174;27;20497;-70
2023/06/29 05:42:24;;;;;;;41.17;26.50;;;;;;;;;;5113395;28;20048;-70
2023/06/29 05:44:50;;;;;;;45.10;26.88;;;;;;;;;;5112369;28;20039;-70
2023/06/29 05:47:18;;;;;;;38.78;25.63;;;;;;;;;;5088645;28;20079;-70
2023/06/29 05:49:45;;;;;;;39.95;24.65;;;;;;;;;;5088170;28;20376;-70
2023/06/29 05:52:11;;;;;;;40.70;25.80;;;;;;;;;;5090946;28;20055;-70
2023/06/29 05:54:38;;;;;;;45.25;25.83;;;;;;;;;;5103435;28;20039;-70
2023/06/29 05:57:05;;;;;;;37.95;24.80;;;;;;;;;;5092466;28;20101;-70
2023/06/29 05:59:31;;;;;;;42.42;25.38;;;;;;;;;;5097197;28;20038;-70
2023/06/29 06:01:58;;;;;;;40.95;24.73;;;;;;;;;;5082098;28;20099;-70
2023/06/29 06:04:24;;;;;;;43.88;26.38;;;;;;;;;;5124022;27;20090;-70
2023/06/29 06:06:50;;;;;;;37.40;23.75;;;;;;;;;;5091358;28;20058;-70
2023/06/29 06:09:17;;;;;;;40.88;24.33;;;;;;;;;;5093668;28;20051;-70
2023/06/29 06:11:43;;;;;;;38.90;25.55;;;;;;;;;;5095908;28;20080;-70
2023/06/29 06:14:09;;;;;;;38.00;24.08;;;;;;;;;;5105238;28;20036;-70
2023/06/29 06:16:36;;;;;;;37.90;25.58;;;;;;;;;;5090130;28;20074;-70
2023/06/29 06:19:02;;;;;;;39.13;23.55;;;;;;;;;;5094345;28;20498;-70
2023/06/29 06:21:29;;;;;;;37.97;24.75;;;;;;;;;;5090786;28;20044;-70
2023/06/29 06:23:55;;;;;;;41.60;25.08;;;;;;;;;;5093362;28;20043;-70
2023/06/29 06:26:21;;;;;;;42.05;24.13;;;;;;;;;;5089847;28;20046;-70
2023/06/29 06:28:47;;;;;;;40.47;26.00;;;;;;;;;;5082604;28;20044;-74
2023/06/29 06:31:13;;;;;;;38.13;25.50;;;;;;;;;;5086472;28;20464;-70
2023/06/29 06:33:40;;;;;;;35.83;24.30;;;;;;;;;;5086250;28;20067;-70
2023/06/29 06:36:07;;;;;;;41.58;25.10;;;;;;;;;;5090939;28;20040;-70
2023/06/29 06:38:33;;;;;;;40.20;25.58;;;;;;;;;;5092181;28;20119;-70
2023/06/29 06:40:59;;;;;;;41.83;26.13;;;;;;;;;;5091942;28;20408;-70
2023/06/29 06:43:26;;;;;;;35.65;24.38;;;;;;;;;;5091670;28;20055;-70
2023/06/29 06:45:55;;;;;;;40.25;24.77;;;;;;;;;;5100004;28;20445;-70
2023/06/29 06:48:21;;;;;;;40.45;25.30;;;;;;;;;;5108101;28;20044;-70
2023/06/29 06:50:47;;;;;;;42.85;24.90;;;;;;;;;;5108701;28;20040;-69
2023/06/29 06:53:13;;;;;;;41.63;24.95;;;;;;;;;;5110495;28;20048;-70
2023/06/29 06:55:40;;;;;;;35.13;24.40;;;;;;;;;;5110913;28;20122;-70
2023/06/29 06:58:06;;;;;;;39.83;25.77;;;;;;;;;;5094023;28;20040;-70
2023/06/29 07:00:32;;;;;;;38.10;25.85;;;;;;;;;;5113061;28;20035;-71
2023/06/29 07:02:58;;;;;;;45.72;25.73;;;;;;;;;;5111054;28;20119;-71
2023/06/29 07:05:24;;;;;;;45.30;27.30;;;;;;;;;;5110019;28;20487;-71
2023/06/29 07:07:53;;;;;;;40.22;25.92;;;;;;;;;;5111328;28;20058;-70
2023/06/29 07:10:19;;;;;;;42.17;27.40;;;;;;;;;;5110850;28;20077;-70
2023/06/29 07:12:46;;;;;;;43.53;27.80;;;;;;;;;;5111521;28;20075;-70
2023/06/29 07:15:12;;;;;;;47.00;25.50;;;;;;;;;;5110463;28;20043;-70
2023/06/29 07:17:38;;;;;;;39.53;26.88;;;;;;;;;;5110327;28;20043;-71
2023/06/29 07:20:06;;;;;;;47.75;27.85;;;;;;;;;;5112844;28;20134;-70
2023/06/29 07:22:32;;;;;;;41.38;27.48;;;;;;;;;;5111061;28;20096;-71
2023/06/29 07:25:00;;;;;;;45.40;27.45;;;;;;;;;;5144892;27;20047;-71
2023/06/29 07:27:26;;;;;;;41.33;26.60;;;;;;;;;;5110650;28;20383;-72
2023/06/29 07:29:53;;;;;;;43.13;28.15;;;;;;;;;;5111220;28;20059;-70
2023/06/29 07:32:19;;;;;;;51.67;29.90;;;;;;;;;;5110060;28;20052;-71
2023/06/29 07:34:46;;;;;;;48.40;29.27;;;;;;;;;;5108689;28;20122;-71
2023/06/29 07:37:12;;;;;;;43.83;27.45;;;;;;;;;;5110340;28;20495;-71
2023/06/29 07:39:38;;;;;;;43.28;28.88;;;;;;;;;;5089305;28;20035;-71
2023/06/29 07:42:04;;;;;;;49.03;29.30;;;;;;;;;;5109927;28;20471;-71
2023/06/29 07:44:30;;;;;;;50.00;30.05;;;;;;;;;;5110529;28;20047;-70
2023/06/29 07:46:57;;;;;;;48.33;29.83;;;;;;;;;;5112013;28;20055;-70
2023/06/29 07:49:23;;;;;;;45.83;28.17;;;;;;;;;;5112363;28;20114;-71
2023/06/29 07:51:49;;;;;;;49.03;29.70;;;;;;;;;;5102331;28;20042;-71
2023/06/29 07:54:16;;;;;;;48.22;28.50;;;;;;;;;;5110898;28;20429;-71
2023/06/29 07:56:43;;;;;;;46.08;28.13;;;;;;;;;;5110581;28;20043;-71
2023/06/29 07:59:09;;;;;;;47.05;30.00;;;;;;;;;;5094922;28;20058;-71
2023/06/29 08:01:38;;;;;;;51.03;30.00;;;;;;;;;;5109903;28;20047;-72
2023/06/29 08:04:06;;;;;;;48.05;29.15;;;;;;;;;;5110786;28;20051;-75
2023/06/29 08:06:32;;;;;;;43.15;28.52;;;;;;;;;;5108287;28;20054;-71
2023/06/29 08:08:58;;;;;;;50.58;28.35;;;;;;;;;;5111181;28;20051;-71
2023/06/29 08:11:25;;;;;;;46.15;27.80;;;;;;;;;;5101556;28;20088;-71
2023/06/29 08:13:51;;;;;;;48.03;28.70;;;;;;;;;;5106996;28;20039;-71
2023/06/29 08:16:17;;;;;;;46.47;27.63;;;;;;;;;;5109237;28;20042;-72
2023/06/29 08:18:43;;;;;;;47.53;30.02;;;;;;;;;;5111151;28;20061;-72
2023/06/29 08:21:12;;;;;;;44.53;29.73;;;;;;;;;;5093065;28;20144;-72
2023/06/29 08:23:38;;;;;;;43.15;29.27;;;;;;;;;;5114904;28;20115;-72
2023/06/29 08:26:05;;;;;;;46.72;29.20;;;;;;;;;;5113618;28;20047;-72
2023/06/29 08:28:31;;;;;;;45.63;29.15;;;;;;;;;;5110595;27;20040;-72
2023/06/29 08:30:57;;;;;;;45.92;30.30;;;;;;;;;;5108112;28;20402;-71
2023/06/29 08:33:23;;;;;;;45.42;30.15;;;;;;;;;;5113653;28;20040;-72
2023/06/29 08:35:52;;;;;;;44.83;30.60;;;;;;;;;;5111622;28;20039;-71
2023/06/29 08:38:19;;;;;;;46.20;30.27;;;;;;;;;;5111353;28;20089;-72
2023/06/29 08:40:47;;;;;;;51.42;31.38;;;;;;;;;;5146457;27;20058;-72
2023/06/29 08:43:15;;;;;;;48.83;31.10;;;;;;;;;;5104873;28;20044;-72
2023/06/29 08:45:45;;;;;;;46.42;31.98;;;;;;;;;;5114397;28;20059;-72
2023/06/29 08:48:14;;;;;;;41.83;28.88;;;;;;;;;;5108428;28;20043;-74
2023/06/29 08:50:44;;;;;;;43.78;30.33;;;;;;;;;;5130450;27;20118;-73
2023/06/29 08:53:11;;;;;;;40.92;28.77;;;;;;;;;;5146545;27;20530;-73
2023/06/29 08:55:37;;;;;;;48.50;29.92;;;;;;;;;;5108675;27;20039;-73
2023/06/29 08:58:04;;;;;;;48.42;30.10;;;;;;;;;;5115583;28;20495;-73
2023/06/29 09:00:30;;;;;;;47.15;31.95;;;;;;;;;;5095155;28;20480;-74
2023/06/29 09:02:56;;;;;;;45.85;30.23;;;;;;;;;;5109414;28;20055;-73
2023/06/29 09:05:23;;;;;;;38.55;25.15;;;;;;;;;;5113536;28;20487;-72
2023/06/29 09:07:50;;;;;;;50.30;25.27;;;;;;;;;;5114024;28;20070;-71
2023/06/29 09:10:16;;;;;;;38.83;25.13;;;;;;;;;;5111242;28;20199;-70
2023/06/29 09:12:42;;;;;;;35.75;25.38;;;;;;;;;;5114352;28;20076;-72
2023/06/29 09:15:10;;;;;;;42.22;29.05;;;;;;;;;;5114241;28;20199;-71
2023/06/29 09:17:36;;;;;;;42.47;28.27;;;;;;;;;;5110824;28;20040;-70
2023/06/29 09:20:13;;;;;;;44.40;30.05;;;;;;;;;;5112438;28;20135;-70
2023/06/29 09:22:40;;;;;;;52.53;33.00;;;;;;;;;;5107911;27;20048;-70
2023/06/29 09:25:07;;;;;;;53.50;33.97;;;;;;;;;;5114922;28;20447;-70
2023/06/29 09:27:37;;;;;;;58.03;35.08;;;;;;;;;;5111727;28;20096;-70
2023/06/29 09:30:04;;;;;;;52.33;31.77;;;;;;;;;;5142958;27;20147;-70
2023/06/29 09:32:30;;;;;;;54.45;33.80;;;;;;;;;;5113342;28;20043;-68
2023/06/29 09:35:04;;;;;;;47.85;32.40;;;;;;;;;;5114926;28;20090;-69
2023/06/29 09:37:30;;;;;;;42.10;31.00;;;;;;;;;;5107635;27;20451;-68
2023/06/29 09:39:57;;;;;;;47.30;31.88;;;;;;;;;;5109222;28;20043;-69
2023/06/29 09:42:23;;;;;;;45.55;31.20;;;;;;;;;;5110609;28;20047;-68
2023/06/29 09:44:49;;;;;;;47.47;29.98;;;;;;;;;;5111779;28;20047;-68
2023/06/29 09:47:19;;;;;;;46.13;30.77;;;;;;;;;;5111213;28;20784;-69
2023/06/29 09:49:49;;;;;;;49.10;33.25;;;;;;;;;;5105855;28;20157;-69
2023/06/29 09:52:15;;;;;;;49.50;33.42;;;;;;;;;;5109613;27;20066;-68
2023/06/29 09:54:42;;;;;;;51.53;33.72;;;;;;;;;;5114468;28;20093;-69
2023/06/29 09:57:12;;;;;;;48.35;33.83;;;;;;;;;;5113460;27;20050;-68
2023/06/29 09:59:44;;;;;;;54.95;33.92;;;;;;;;;;5111598;28;20390;-69
2023/06/29 10:02:10;;;;;;;55.35;34.13;;;;;;;;;;5112212;28;20112;-69
2023/06/29 10:04:36;;;;;;;57.80;37.53;;;;;;;;;;5114016;28;20040;-68
2023/06/29 10:07:08;;;;;;;55.67;36.42;;;;;;;;;;5094766;28;20051;-68
2023/06/29 10:09:39;;;;;;;57.38;36.60;;;;;;;;;;5110856;28;21125;-68
2023/06/29 10:12:08;;;;;;;58.90;36.15;;;;;;;;;;5102309;27;20051;-71
2023/06/29 10:14:35;;;;;;;55.75;36.38;;;;;;;;;;5112064;28;20116;-69
2023/06/29 10:17:03;;;;;;;56.42;36.65;;;;;;;;;;5112996;27;20128;-69
2023/06/29 10:19:30;;;;;;;58.13;37.28;;;;;;;;;;5113029;28;20155;-70
2023/06/29 10:22:00;;;;;;;63.40;38.50;;;;;;;;;;5111967;28;20152;-69
2023/06/29 10:24:33;;;;;;;56.83;37.20;;;;;;;;;;5111914;28;20040;-69
2023/06/29 10:27:01;;;;;;;58.13;35.88;;;;;;;;;;5103911;28;20487;-69
2023/06/29 10:29:27;;;;;;;58.25;38.38;;;;;;;;;;5088615;28;20505;-69
2023/06/29 10:31:57;;;;;;;65.47;39.20;;;;;;;;;;5112299;28;20047;-70
2023/06/29 10:34:26;;;;;;;56.63;36.17;;;;;;;;;;5106935;28;20047;-70
2023/06/29 10:36:53;;;;;;;61.20;37.85;;;;;;;;;;5124216;27;20106;-70
2023/06/29 10:39:38;;;;;;;62.17;37.97;;;;;;;;;;5105585;28;20064;-70
2023/06/29 10:42:14;;;;;;;59.38;37.25;;;;;;;;;;5102782;28;20047;-70
2023/06/29 10:44:40;;;;;;;58.58;37.78;;;;;;;;;;5104886;28;20055;-71
2023/06/29 10:47:06;;;;;;;64.70;37.60;;;;;;;;;;5102872;28;20051;-71
2023/06/29 10:49:33;;;;;;;57.22;36.63;;;;;;;;;;5107420;28;20084;-71
2023/06/29 10:52:03;;;;;;;59.92;37.85;;;;;;;;;;5105796;28;20063;-70
2023/06/29 10:54:29;;;;;;;65.22;39.28;;;;;;;;;;5120201;27;20040;-70
2023/06/29 10:57:00;;;;;;;61.00;37.75;;;;;;;;;;5086652;28;20070;-70
2023/06/29 10:59:29;;;;;;;59.60;38.65;;;;;;;;;;5108397;28;20066;-70
2023/06/29 11:01:56;;;;;;;57.25;38.25;;;;;;;;;;5103968;28;21021;-70
2023/06/29 11:04:23;;;;;;;62.20;38.95;;;;;;;;;;5130666;27;20055;-70
2023/06/29 11:06:49;;;;;;;64.43;38.03;;;;;;;;;;5104169;28;20412;-70
2023/06/29 11:09:16;;;;;;;66.20;40.80;;;;;;;;;;5103759;28;20054;-70
2023/06/29 11:11:45;;;;;;;69.35;42.65;;;;;;;;;;5104478;28;20043;-69
2023/06/29 11:14:12;;;;;;;65.25;43.55;;;;;;;;;;5103803;28;20044;-70
2023/06/29 11:16:41;;;;;;;65.95;42.72;;;;;;;;;;5133226;27;20039;-69
2023/06/29 11:19:08;;;;;;;59.88;40.55;;;;;;;;;;5106176;28;20100;-70
2023/06/29 11:21:34;;;;;;;57.65;38.00;;;;;;;;;;5102889;28;20505;-69
2023/06/29 11:24:00;;;;;;;53.90;37.50;;;;;;;;;;5131187;27;20036;-69
2023/06/29 11:26:27;;;;;;;65.10;37.92;;;;;;;;;;5105920;28;20445;-70
2023/06/29 11:28:54;;;;;;;61.67;37.17;;;;;;;;;;5104816;28;20043;-70
2023/06/29 11:31:21;;;;;;;52.60;34.92;;;;;;;;;;5105162;28;20589;-69
2023/06/29 11:33:50;;;;;;;55.58;36.33;;;;;;;;;;5106701;28;20069;-71
2023/06/29 11:36:27;;;;;;;50.05;31.92;;;;;;;;;;5110031;28;20053;-71
2023/06/29 11:39:07;;;;;;;50.90;33.78;;;;;;;;;;5142480;27;20583;-71
2023/06/29 11:41:34;;;;;;;48.63;33.50;;;;;;;;;;5110952;28;20048;-71
2023/06/29 11:44:00;;;;;;;50.88;35.33;;;;;;;;;;5111514;28;20093;-71
2023/06/29 11:46:27;;;;;;;49.33;32.65;;;;;;;;;;5110487;28;20044;-71
2023/06/29 11:48:57;;;;;;;43.47;30.08;;;;;;;;;;5127828;27;20436;-71
2023/06/29 11:51:28;;;;;;;36.60;28.20;;;;;;;;;;5109606;28;20039;-71
2023/06/29 11:53:54;;;;;;;45.92;29.80;;;;;;;;;;5109722;27;20055;-71
2023/06/29 11:56:28;;;;;;;41.33;27.70;;;;;;;;;;5111302;28;20426;-71
2023/06/29 11:58:55;;;;;;;34.75;26.48;;;;;;;;;;5111123;28;20067;-72
2023/06/29 12:01:21;;;;;;;40.53;27.95;;;;;;;;;;5107839;28;20463;-72
2023/06/29 12:03:48;;;;;;;40.25;27.88;;;;;;;;;;5108556;28;20085;-72
2023/06/29 12:06:14;;;;;;;41.88;31.88;;;;;;;;;;5108573;28;20044;-72
2023/06/29 12:08:41;;;;;;;39.50;30.58;;;;;;;;;;5109079;28;20035;-72
2023/06/29 12:11:19;;;;;;;41.30;31.38;;;;;;;;;;5112174;28;20067;-72
2023/06/29 12:13:48;;;;;;;41.78;33.15;;;;;;;;;;5093452;28;20122;-72
2023/06/29 12:16:18;;;;;;;45.00;35.17;;;;;;;;;;5109156;28;20055;-72
2023/06/29 12:18:44;;;;;;;46.05;35.50;;;;;;;;;;5111309;28;20040;-72
2023/06/29 12:21:10;;;;;;;43.65;33.28;;;;;;;;;;5111073;28;20471;-72
2023/06/29 12:23:37;;;;;;;49.25;38.55;;;;;;;;;;5110083;28;20040;-70
2023/06/29 12:26:03;;;;;;;46.45;36.28;;;;;;;;;;5109850;28;20486;-72
2023/06/29 12:28:29;;;;;;;43.85;35.28;;;;;;;;;;5111182;28;20040;-72
2023/06/29 12:30:55;;;;;;;46.13;35.95;;;;;;;;;;5110151;28;20095;-72
2023/06/29 12:33:22;;;;;;;51.67;35.55;;;;;;;;;;5106009;28;20047;-72
2023/06/29 12:35:48;;;;;;;44.05;34.05;;;;;;;;;;5099655;28;20070;-72
2023/06/29 12:38:14;;;;;;;45.35;32.15;;;;;;;;;;5108261;28;20155;-72
2023/06/29 12:40:40;;;;;;;47.78;33.50;;;;;;;;;;5109220;28;20050;-69
2023/06/29 12:43:06;;;;;;;40.58;30.38;;;;;;;;;;5110811;28;20094;-69
2023/06/29 12:45:34;;;;;;;44.42;29.85;;;;;;;;;;5111478;28;20060;-68
2023/06/29 12:48:00;;;;;;;40.60;27.70;;;;;;;;;;5109795;28;20097;-68
2023/06/29 12:50:26;;;;;;;40.70;27.77;;;;;;;;;;5084362;28;20339;-67
2023/06/29 12:52:53;;;;;;;46.45;29.02;;;;;;;;;;5107309;28;20084;-68
2023/06/29 12:55:19;;;;;;;42.42;29.25;;;;;;;;;;5103550;28;20040;-68
2023/06/29 12:57:45;;;;;;;43.35;30.08;;;;;;;;;;5110318;28;20043;-68
2023/06/29 13:00:12;;;;;;;49.33;32.33;;;;;;;;;;5108373;28;20126;-68
2023/06/29 13:02:38;;;;;;;55.67;34.83;;;;;;;;;;5109419;28;20044;-68
2023/06/29 13:05:05;;;;;;;51.22;32.85;;;;;;;;;;5111643;28;20077;-68
2023/06/29 13:07:31;;;;;;;47.58;31.52;;;;;;;;;;5114493;28;20514;-68
2023/06/29 13:09:58;;;;;;;50.00;32.05;;;;;;;;;;5110616;27;20139;-66
2023/06/29 13:12:26;;;;;;;54.58;31.58;;;;;;;;;;5104696;28;20127;-66
2023/06/29 13:14:52;;;;;;;48.15;30.42;;;;;;;;;;5108728;28;20052;-66
2023/06/29 13:17:18;;;;;;;49.25;31.10;;;;;;;;;;5108054;28;20406;-66
2023/06/29 13:19:46;;;;;;;60.25;33.20;;;;;;;;;;5106684;27;20127;-66
2023/06/29 13:22:12;;;;;;;51.97;30.20;;;;;;;;;;5105776;28;20040;-66
2023/06/29 13:24:38;;;;;;;53.47;31.48;;;;;;;;;;5108384;28;20044;-66
2023/06/29 13:27:05;;;;;;;59.78;34.13;;;;;;;;;;5109905;27;20111;-66
2023/06/29 13:29:31;;;;;;;65.72;34.88;;;;;;;;;;5106952;28;20070;-66
2023/06/29 13:31:58;;;;;;;65.72;37.95;;;;;;;;;;5087264;28;20048;-66
2023/06/29 13:34:27;;;;;;;63.75;36.40;;;;;;;;;;5109299;28;20582;-66
2023/06/29 13:36:53;;;;;;;64.68;36.50;;;;;;;;;;5110306;28;20048;-66
2023/06/29 13:39:19;;;;;;;74.28;39.22;;;;;;;;;;5101406;28;20037;-66
2023/06/29 13:41:46;;;;;;;70.40;37.03;;;;;;;;;;5112419;28;20046;-66
2023/06/29 13:44:13;;;;;;;67.38;35.17;;;;;;;;;;5110398;28;20044;-65
2023/06/29 13:46:40;;;;;;;67.50;34.47;;;;;;;;;;5088779;28;20388;-66
2023/06/29 13:49:06;;;;;;;61.67;34.85;;;;;;;;;;5109974;27;20887;-65
2023/06/29 13:51:33;;;;;;;65.07;36.42;;;;;;;;;;5112856;27;20177;-66
2023/06/29 13:54:01;;;;;;;69.65;37.65;;;;;;;;;;5111313;28;20089;-66
2023/06/29 13:56:27;;;;;;;68.90;37.05;;;;;;;;;;5114288;27;20051;-66
2023/06/29 13:58:54;;;;;;;74.85;39.83;;;;;;;;;;5114816;27;20048;-66
2023/06/29 14:01:20;;;;;;;74.70;38.67;;;;;;;;;;5107157;27;20044;-66
2023/06/29 14:03:47;;;;;;;73.07;40.10;;;;;;;;;;5113091;27;20048;-66
2023/06/29 14:06:18;;;;;;;71.55;39.83;;;;;;;;;;5109158;27;20506;-66
2023/06/29 14:08:45;;;;;;;70.68;37.50;;;;;;;;;;5104763;28;20056;-66
2023/06/29 14:11:11;;;;;;;60.65;35.58;;;;;;;;;;5112012;27;20114;-66
2023/06/29 14:13:37;;;;;;;58.58;33.88;;;;;;;;;;5113608;27;20039;-65
2023/06/29 14:16:04;;;;;;;56.50;33.72;;;;;;;;;;5110932;28;20147;-65
2023/06/29 14:18:30;;;;;;;47.88;29.92;;;;;;;;;;5112031;28;20035;-65